KMVN/MVN METAR and TAF weather

Enter ICAO airport designator
Station Type Date Time Source
KMVN METAR 2019/02/16 07:56 UTC NOAA

KMVN 160756Z AUTO 01007KT 10SM OVC120 M04/M08 A3003 RMK AO2 SLP176 T10441078 FZRANO


Station Type Date Time Source
KMVN Decoded METAR 2019/02/16 07:56 UTC NOAA

Mount Vernon, Mount Vernon Airport, IL, United States (KMVN) 38-19N 088-52W
Feb 16, 2019 - 02:56 AM EST / 2019.02.16 0756 UTC
Wind: from the N (010 degrees) at 8 MPH (7 KT):0
Visibility: 10 mile(s):0
Sky conditions: overcast
Temperature: 24.1 F (-4.4 C)
Windchill: 15 F (-9 C):1
Dew Point: 18.0 F (-7.8 C)
Relative Humidity: 77%
Pressure (altimeter): 30.03 in. Hg (1016 hPa)
ob: KMVN 160756Z AUTO 01007KT 10SM OVC120 M04/M08 A3003 RMK AO2 SLP176 T10441078 FZRANO
cycle: 8

Station Type Date Time Source
KMVN TAF 2019/02/16 06:21 UTC NOAA

TAF KMVN 160520Z 1606/1706 01008KT P6SM OVC060
FM161200 02007KT P6SM SCT120
FM161700 06007KT P6SM FEW250
FM170300 09005KT P6SM BKN250


Example: see airport list